createdAt,value
2023-04-09T00:01:12.551Z,46.28
2023-04-09T00:03:42.663Z,45.92
2023-04-09T00:06:13.083Z,45.95
2023-04-09T00:08:41.182Z,46.51
2023-04-09T00:11:10.694Z,46.28
2023-04-09T00:13:39.969Z,46.21
2023-04-09T00:16:09.395Z,46.19
2023-04-09T00:18:45.734Z,46.40
2023-04-09T00:21:13.955Z,46.77
2023-04-09T00:23:42.014Z,46.91
2023-04-09T00:26:11.475Z,46.96
2023-04-09T00:28:40.737Z,47.11
2023-04-09T00:31:09.850Z,46.99
2023-04-09T00:33:37.908Z,46.84
2023-04-09T00:36:06.620Z,47.83
2023-04-09T00:38:34.636Z,46.94
2023-04-09T00:41:02.793Z,46.91
2023-04-09T00:43:32.168Z,47.69
2023-04-09T00:46:00.843Z,47.44
2023-04-09T00:48:29.180Z,46.86
2023-04-09T00:50:57.429Z,47.29
2023-04-09T00:53:26.452Z,46.76
2023-04-09T00:55:54.509Z,46.67
2023-04-09T00:58:22.811Z,46.51
2023-04-09T01:00:52.230Z,46.83
2023-04-09T01:03:20.787Z,46.74
2023-04-09T01:06:00.278Z,46.49
2023-04-09T01:08:34.874Z,46.76
2023-04-09T01:11:09.832Z,46.09
2023-04-09T01:13:48.663Z,46.80
2023-04-09T01:16:23.602Z,46.11
2023-04-09T01:18:58.965Z,46.78
2023-04-09T01:21:32.634Z,46.23
2023-04-09T01:24:10.965Z,46.37
2023-04-09T01:26:57.263Z,46.24
2023-04-09T01:29:34.619Z,46.33
2023-04-09T01:32:04.134Z,46.60
2023-04-09T01:34:32.643Z,46.38
2023-04-09T01:37:03.419Z,46.26
2023-04-09T01:39:32.368Z,46.19
2023-04-09T01:42:03.856Z,46.44
2023-04-09T01:44:34.132Z,46.32
2023-04-09T01:47:02.964Z,45.72
2023-04-09T01:49:31.553Z,46.34
2023-04-09T01:52:00.068Z,46.44
2023-04-09T01:54:28.157Z,46.34
2023-04-09T01:56:58.712Z,46.87
2023-04-09T01:59:26.860Z,46.68
2023-04-09T02:02:00.988Z,46.70
2023-04-09T02:04:34.106Z,46.70
2023-04-09T02:07:07.452Z,46.59
2023-04-09T02:09:38.487Z,46.90
2023-04-09T02:12:11.742Z,46.21
2023-04-09T02:14:39.844Z,46.38
2023-04-09T02:17:09.455Z,46.25
2023-04-09T02:19:41.643Z,46.68
2023-04-09T02:22:10.186Z,46.58
2023-04-09T02:24:38.411Z,46.67
2023-04-09T02:27:06.725Z,46.75
2023-04-09T02:29:35.086Z,46.52
2023-04-09T02:32:03.111Z,46.12
2023-04-09T02:34:32.520Z,46.25
2023-04-09T02:37:00.641Z,46.64
2023-04-09T02:39:28.798Z,46.07
2023-04-09T02:41:57.940Z,46.49
2023-04-09T02:44:28.361Z,46.43
2023-04-09T02:46:57.170Z,46.30
2023-04-09T02:49:25.233Z,46.33
2023-04-09T02:51:54.657Z,46.49
2023-04-09T02:54:22.934Z,46.55
2023-04-09T02:56:50.979Z,45.87
2023-04-09T02:59:19.629Z,45.84
2023-04-09T03:01:47.794Z,46.02
2023-04-09T03:04:15.990Z,46.25
2023-04-09T03:06:44.104Z,45.74
2023-04-09T03:09:13.504Z,45.54
2023-04-09T03:11:41.530Z,45.78
2023-04-09T03:14:09.513Z,46.03
2023-04-09T03:16:37.620Z,45.28
2023-04-09T03:19:05.780Z,45.15
2023-04-09T03:21:34.241Z,45.26
2023-04-09T03:24:02.860Z,45.40
2023-04-09T03:26:36.321Z,44.91
2023-04-09T03:29:07.294Z,44.59
2023-04-09T03:31:35.713Z,43.93
2023-04-09T03:34:03.821Z,42.76
2023-04-09T03:36:33.936Z,42.29
2023-04-09T03:39:10.336Z,41.19
2023-04-09T03:41:43.948Z,39.72
2023-04-09T03:44:17.171Z,38.48
2023-04-09T03:47:10.477Z,36.99
2023-04-09T03:49:39.866Z,36.53
2023-04-09T03:52:16.816Z,36.30
2023-04-09T03:54:48.265Z,35.70
2023-04-09T03:57:21.919Z,34.05
2023-04-09T03:59:52.709Z,34.00
2023-04-09T04:02:23.057Z,32.85
2023-04-09T04:04:59.678Z,31.96
2023-04-09T04:07:33.663Z,31.62
2023-04-09T04:10:09.278Z,30.96
2023-04-09T04:12:39.082Z,30.89
2023-04-09T04:15:30.644Z,30.43
2023-04-09T04:17:58.889Z,29.33
2023-04-09T04:20:39.774Z,28.14
2023-04-09T04:23:11.660Z,27.69
2023-04-09T04:25:47.486Z,27.48
2023-04-09T04:28:23.499Z,27.57
2023-04-09T04:30:51.716Z,27.59
2023-04-09T04:33:20.370Z,27.28
2023-04-09T04:36:06.496Z,27.57
2023-04-09T04:38:53.813Z,27.81
2023-04-09T04:41:30.112Z,27.62
2023-04-09T04:44:10.749Z,27.48
2023-04-09T04:46:39.592Z,28.00
2023-04-09T04:49:07.629Z,27.65
2023-04-09T04:51:42.839Z,26.96
2023-04-09T04:54:14.102Z,26.43
2023-04-09T04:56:48.309Z,25.32
2023-04-09T04:59:39.924Z,24.90
2023-04-09T05:02:10.543Z,24.01
2023-04-09T05:04:56.221Z,22.78
2023-04-09T05:07:32.443Z,22.13
2023-04-09T05:10:00.897Z,21.16
2023-04-09T05:12:34.494Z,20.60
2023-04-09T05:15:05.831Z,20.01
2023-04-09T05:17:34.059Z,19.66
2023-04-09T05:20:02.265Z,19.42
2023-04-09T05:22:42.686Z,19.47
2023-04-09T05:25:11.401Z,18.77
2023-04-09T05:27:41.982Z,19.00
2023-04-09T05:30:13.462Z,18.27
2023-04-09T05:32:42.679Z,18.02
2023-04-09T05:35:10.925Z,17.82
2023-04-09T05:37:42.795Z,17.36
2023-04-09T05:40:12.479Z,16.67
2023-04-09T05:42:41.620Z,16.57
2023-04-09T05:45:25.349Z,15.85
2023-04-09T05:47:54.681Z,15.38
2023-04-09T05:50:24.320Z,15.52
2023-04-09T05:52:55.167Z,15.06
2023-04-09T05:55:28.889Z,14.77
2023-04-09T05:58:01.228Z,14.97
2023-04-09T06:00:31.401Z,14.50
2023-04-09T06:02:59.617Z,14.57
2023-04-09T06:05:29.565Z,14.43
2023-04-09T06:07:57.755Z,13.61
2023-04-09T06:10:26.172Z,13.52
2023-04-09T06:12:54.324Z,12.76
2023-04-09T06:15:22.612Z,12.77
2023-04-09T06:17:51.979Z,12.70
2023-04-09T06:20:20.385Z,12.38
2023-04-09T06:22:49.126Z,12.12
2023-04-09T06:25:17.190Z,12.03
2023-04-09T06:27:45.287Z,12.03
2023-04-09T06:30:13.954Z,11.43
2023-04-09T06:32:53.083Z,11.89
2023-04-09T06:35:24.116Z,11.36
2023-04-09T06:37:52.257Z,11.30
2023-04-09T06:40:23.012Z,11.14
2023-04-09T06:42:51.443Z,10.68
2023-04-09T06:45:25.046Z,10.77
2023-04-09T06:47:53.277Z,10.57
2023-04-09T06:50:21.724Z,10.45
2023-04-09T06:52:51.422Z,10.93
2023-04-09T06:55:20.111Z,10.38
2023-04-09T06:57:48.146Z,10.36
2023-04-09T07:00:16.817Z,9.76
2023-04-09T07:02:45.237Z,9.85
2023-04-09T07:05:13.445Z,10.09
2023-04-09T07:07:41.741Z,10.20
2023-04-09T07:10:11.788Z,9.50
2023-04-09T07:12:40.352Z,9.68
2023-04-09T07:15:09.327Z,9.63
2023-04-09T07:17:37.544Z,9.94
2023-04-09T07:20:06.465Z,9.94
2023-04-09T07:22:34.561Z,10.55
2023-04-09T07:25:02.663Z,11.02
2023-04-09T07:27:32.932Z,11.11
2023-04-09T07:30:01.362Z,10.76
2023-04-09T07:32:29.802Z,10.01
2023-04-09T07:34:59.544Z,10.19
2023-04-09T07:37:28.174Z,10.01
2023-04-09T07:39:56.846Z,9.64
2023-04-09T07:42:24.959Z,9.83
2023-04-09T07:44:54.619Z,9.95
2023-04-09T07:47:22.901Z,9.98
2023-04-09T07:49:51.392Z,12.26
2023-04-09T07:52:20.157Z,11.48
2023-04-09T07:54:48.197Z,11.60
2023-04-09T07:57:16.437Z,9.89
2023-04-09T07:59:44.613Z,9.48
2023-04-09T08:02:15.448Z,8.52
2023-04-09T08:04:43.993Z,10.42
2023-04-09T08:07:12.582Z,9.89
2023-04-09T08:09:40.569Z,9.06
2023-04-09T08:12:08.742Z,8.72
2023-04-09T08:14:36.813Z,8.41
2023-04-09T08:17:05.609Z,8.79
2023-04-09T08:19:35.121Z,10.56
2023-04-09T08:22:03.367Z,11.98
2023-04-09T08:24:31.516Z,13.71
2023-04-09T08:26:59.678Z,14.50
2023-04-09T08:29:28.331Z,15.29
2023-04-09T08:31:56.473Z,15.59
2023-04-09T08:34:24.871Z,16.77
2023-04-09T08:36:54.400Z,17.90
2023-04-09T08:39:22.476Z,19.50
2023-04-09T08:41:52.124Z,18.78
2023-04-09T08:44:22.058Z,19.72
2023-04-09T08:46:51.095Z,20.06
2023-04-09T08:49:19.264Z,19.50
2023-04-09T08:51:48.037Z,20.03
2023-04-09T08:54:20.129Z,20.64
2023-04-09T08:56:48.833Z,21.32
2023-04-09T08:59:19.203Z,21.62
2023-04-09T09:01:52.837Z,22.67
2023-04-09T09:04:21.745Z,22.83
2023-04-09T09:06:49.834Z,24.10
2023-04-09T09:09:19.887Z,25.32
2023-04-09T09:11:50.351Z,25.39
2023-04-09T09:14:20.429Z,25.97
2023-04-09T09:17:08.344Z,27.05
2023-04-09T09:19:37.287Z,27.65
2023-04-09T09:22:07.053Z,27.65
2023-04-09T09:24:49.652Z,27.25
2023-04-09T09:27:39.346Z,27.11
2023-04-09T09:30:10.538Z,28.04
2023-04-09T09:32:39.207Z,27.73
2023-04-09T09:35:08.514Z,28.09
2023-04-09T09:37:36.511Z,28.16
2023-04-09T09:40:07.186Z,27.94
2023-04-09T09:42:35.689Z,28.48
2023-04-09T09:45:19.344Z,29.32
2023-04-09T09:47:53.397Z,28.95
2023-04-09T09:50:29.166Z,28.69
2023-04-09T09:53:04.979Z,29.12
2023-04-09T09:55:41.992Z,29.32
2023-04-09T09:58:17.881Z,29.07
2023-04-09T10:00:48.655Z,28.99
2023-04-09T10:03:25.179Z,29.11
2023-04-09T10:05:54.753Z,28.73
2023-04-09T10:08:23.620Z,28.87
2023-04-09T10:10:53.925Z,29.00
2023-04-09T10:13:32.328Z,29.50
2023-04-09T10:16:01.837Z,29.72
2023-04-09T10:18:33.509Z,29.48
2023-04-09T10:21:10.475Z,29.56
2023-04-09T10:23:41.861Z,29.20
2023-04-09T10:26:12.071Z,30.69
2023-04-09T10:28:40.320Z,31.47
2023-04-09T10:31:08.860Z,31.75
2023-04-09T10:33:38.636Z,31.73
2023-04-09T10:36:08.037Z,30.83
2023-04-09T10:38:37.927Z,29.42
2023-04-09T10:41:17.216Z,30.14
2023-04-09T10:43:48.525Z,29.68
2023-04-09T10:46:32.365Z,29.42
2023-04-09T10:49:11.423Z,29.68
2023-04-09T10:51:39.693Z,29.59
2023-04-09T10:54:07.842Z,28.96
2023-04-09T10:56:37.317Z,28.60
2023-04-09T10:59:05.386Z,27.83
2023-04-09T11:01:33.502Z,27.74
2023-04-09T11:04:11.377Z,27.43
2023-04-09T11:06:43.538Z,29.30
2023-04-09T11:09:12.039Z,27.43
2023-04-09T11:11:41.790Z,26.12
2023-04-09T11:14:09.882Z,26.50
2023-04-09T11:16:37.970Z,27.26
2023-04-09T11:19:07.919Z,27.47
2023-04-09T11:21:36.335Z,27.61
2023-04-09T11:24:04.526Z,28.24
2023-04-09T11:26:37.252Z,27.67
2023-04-09T11:29:09.657Z,27.88
2023-04-09T11:31:38.037Z,27.66
2023-04-09T11:34:06.315Z,26.45
2023-04-09T11:36:35.891Z,27.38
2023-04-09T11:39:04.200Z,27.50
2023-04-09T11:41:35.585Z,26.93
2023-04-09T11:44:05.034Z,26.20
2023-04-09T11:46:36.228Z,26.18
2023-04-09T11:49:05.003Z,25.22
2023-04-09T11:51:33.247Z,24.82
2023-04-09T11:54:03.276Z,24.76
2023-04-09T11:56:32.484Z,25.19
2023-04-09T11:59:02.297Z,24.41
2023-04-09T12:01:33.229Z,23.91
2023-04-09T12:04:03.212Z,24.83
2023-04-09T12:06:31.892Z,24.19
2023-04-09T12:09:01.137Z,23.60
2023-04-09T12:11:31.779Z,22.95
2023-04-09T12:14:01.310Z,23.17
2023-04-09T12:16:31.490Z,22.48
2023-04-09T12:19:03.780Z,22.31
2023-04-09T12:21:47.722Z,22.85
2023-04-09T12:24:17.072Z,22.20
2023-04-09T12:26:46.289Z,21.96
2023-04-09T12:29:15.895Z,21.92
2023-04-09T12:31:44.320Z,22.06
2023-04-09T12:34:13.888Z,22.43
2023-04-09T12:36:47.284Z,21.64
2023-04-09T12:39:16.091Z,22.24
2023-04-09T12:41:44.839Z,22.72
2023-04-09T12:44:12.916Z,21.74
2023-04-09T12:46:41.456Z,21.48
2023-04-09T12:49:09.600Z,22.31
2023-04-09T12:51:39.884Z,21.72
2023-04-09T12:54:08.362Z,22.99
2023-04-09T12:56:36.381Z,21.88
2023-04-09T12:59:04.899Z,21.97
2023-04-09T13:01:33.208Z,21.79
2023-04-09T13:04:01.697Z,22.04
2023-04-09T13:06:29.989Z,22.02
2023-04-09T13:08:59.428Z,22.60
2023-04-09T13:11:28.018Z,21.30
2023-04-09T13:13:56.183Z,22.24
2023-04-09T13:16:24.445Z,22.47
2023-04-09T13:18:52.911Z,22.36
2023-04-09T13:21:21.153Z,21.38
2023-04-09T13:23:49.417Z,22.28
2023-04-09T13:26:18.836Z,21.64
2023-04-09T13:28:47.238Z,21.90
2023-04-09T13:31:15.481Z,22.18
2023-04-09T13:33:43.687Z,22.51
2023-04-09T13:36:12.257Z,22.28
2023-04-09T13:38:40.336Z,21.69
2023-04-09T13:41:08.532Z,22.74
2023-04-09T13:43:38.350Z,22.61
2023-04-09T13:46:07.280Z,22.16
2023-04-09T13:48:35.363Z,21.79
2023-04-09T13:51:03.583Z,22.54
2023-04-09T13:53:31.714Z,21.77
2023-04-09T13:55:59.769Z,21.70
2023-04-09T13:58:27.824Z,22.82
2023-04-09T14:00:57.305Z,22.61
2023-04-09T14:03:25.528Z,22.27
2023-04-09T14:05:53.634Z,22.55
2023-04-09T14:08:22.133Z,22.86
2023-04-09T14:10:50.336Z,21.90
2023-04-09T14:13:18.426Z,20.91
2023-04-09T14:15:46.581Z,21.20
2023-04-09T14:18:16.381Z,20.92
2023-04-09T14:20:44.519Z,21.48
2023-04-09T14:23:12.691Z,20.91
2023-04-09T14:25:40.802Z,20.96
2023-04-09T14:28:08.932Z,21.39
2023-04-09T14:30:36.948Z,21.96
2023-04-09T14:33:05.240Z,22.41
2023-04-09T14:35:34.936Z,22.07
2023-04-09T14:38:04.433Z,21.55
2023-04-09T14:40:33.053Z,21.64
2023-04-09T14:43:01.421Z,22.22
2023-04-09T14:45:30.708Z,22.11
2023-04-09T14:47:59.355Z,21.93
2023-04-09T14:50:27.474Z,22.31
2023-04-09T14:52:56.932Z,21.36
2023-04-09T14:55:25.959Z,22.70
2023-04-09T14:57:54.435Z,22.15
2023-04-09T15:00:23.039Z,22.26
2023-04-09T15:02:51.376Z,21.75
2023-04-09T15:05:19.795Z,21.61
2023-04-09T15:07:47.902Z,22.58
2023-04-09T15:10:17.425Z,22.96
2023-04-09T15:12:45.450Z,23.07
2023-04-09T15:15:14.757Z,22.98
2023-04-09T15:17:43.071Z,22.47
2023-04-09T15:20:13.817Z,22.96
2023-04-09T15:22:42.266Z,23.25
2023-04-09T15:27:40.379Z,22.19
2023-04-09T15:30:09.753Z,23.18
2023-04-09T15:32:37.783Z,23.51
2023-04-09T15:35:06.758Z,23.22
2023-04-09T15:37:34.848Z,23.34
2023-04-09T15:40:03.935Z,22.95
2023-04-09T15:42:32.289Z,23.33
2023-04-09T15:45:01.978Z,22.79
2023-04-09T15:47:33.428Z,23.13
2023-04-09T15:50:04.770Z,23.61
2023-04-09T15:52:33.109Z,23.93
2023-04-09T15:55:01.672Z,23.98
2023-04-09T15:57:30.460Z,23.51
2023-04-09T15:59:58.566Z,23.39
2023-04-09T16:02:28.049Z,23.03
2023-04-09T16:04:56.485Z,22.82
2023-04-09T16:07:24.596Z,22.73
2023-04-09T16:09:52.649Z,22.67
2023-04-09T16:12:20.756Z,22.30
2023-04-09T16:14:48.789Z,22.56
2023-04-09T16:17:16.852Z,22.64
2023-04-09T16:19:46.271Z,22.79
2023-04-09T16:22:14.494Z,22.61
2023-04-09T16:24:42.493Z,22.94
2023-04-09T16:27:11.027Z,23.03
2023-04-09T16:29:39.087Z,23.04
2023-04-09T16:32:07.222Z,23.20
2023-04-09T16:34:35.319Z,23.48
2023-04-09T16:37:04.779Z,23.50
2023-04-09T16:39:32.872Z,23.67
2023-04-09T16:42:01.687Z,24.02
2023-04-09T16:44:29.770Z,24.00
2023-04-09T16:46:57.794Z,23.70
2023-04-09T16:49:26.013Z,23.87
2023-04-09T16:51:54.128Z,24.13
2023-04-09T16:54:23.707Z,24.22
2023-04-09T16:56:51.705Z,24.25
2023-04-09T16:59:21.073Z,24.66
2023-04-09T17:01:49.858Z,24.67
2023-04-09T17:04:18.252Z,24.77
2023-04-09T17:06:47.165Z,24.54
2023-04-09T17:09:15.323Z,24.91
2023-04-09T17:11:44.851Z,24.84
2023-04-09T17:14:13.299Z,25.42
2023-04-09T17:16:41.485Z,25.00
2023-04-09T17:19:09.949Z,25.06
2023-04-09T17:21:38.122Z,25.38
2023-04-09T17:24:06.692Z,25.67
2023-04-09T17:26:34.714Z,25.36
2023-04-09T17:29:04.611Z,25.63
2023-04-09T17:31:33.234Z,25.87
2023-04-09T17:34:01.482Z,25.47
2023-04-09T17:36:29.624Z,25.38
2023-04-09T17:38:58.409Z,25.65
2023-04-09T17:41:27.900Z,25.86
2023-04-09T17:43:57.047Z,25.49
2023-04-09T17:46:26.582Z,24.95
2023-04-09T17:48:55.056Z,25.01
2023-04-09T17:51:23.484Z,25.61
2023-04-09T17:53:54.375Z,24.84
2023-04-09T17:56:23.719Z,24.86
2023-04-09T17:58:52.272Z,24.72
2023-04-09T18:01:20.759Z,25.33
2023-04-09T18:03:50.726Z,25.16
2023-04-09T18:06:19.177Z,25.00
2023-04-09T18:08:47.770Z,25.12
2023-04-09T18:11:18.172Z,25.01
2023-04-09T18:13:46.568Z,25.83
2023-04-09T18:16:14.878Z,25.45
2023-04-09T18:18:43.327Z,25.94
2023-04-09T18:21:12.823Z,25.52
2023-04-09T18:23:41.196Z,25.21
2023-04-09T18:26:09.345Z,26.10
2023-04-09T18:28:37.384Z,25.41
2023-04-09T18:31:05.947Z,26.50
2023-04-09T18:33:34.238Z,26.25
2023-04-09T18:36:02.829Z,26.20
2023-04-09T18:38:32.305Z,25.82
2023-04-09T18:41:01.276Z,25.89
2023-04-09T18:43:29.697Z,26.04
2023-04-09T18:45:58.238Z,26.55
2023-04-09T18:48:26.706Z,25.85
2023-04-09T18:50:55.036Z,26.59
2023-04-09T18:53:23.088Z,26.06
2023-04-09T18:55:53.810Z,26.27
2023-04-09T18:58:22.781Z,26.37
2023-04-09T19:00:51.739Z,26.17
2023-04-09T19:03:20.683Z,26.67
2023-04-09T19:05:49.672Z,26.39
2023-04-09T19:08:17.841Z,26.17
2023-04-09T19:10:47.579Z,26.45
2023-04-09T19:13:17.156Z,26.92
2023-04-09T19:15:49.028Z,26.67
2023-04-09T19:18:18.765Z,26.76
2023-04-09T19:20:47.126Z,27.09
2023-04-09T19:23:15.150Z,26.81
2023-04-09T19:25:43.110Z,26.82
2023-04-09T19:28:11.621Z,27.45
2023-04-09T19:30:41.045Z,27.87
2023-04-09T19:33:09.193Z,27.77
2023-04-09T19:35:40.644Z,27.49
2023-04-09T19:38:09.236Z,27.86
2023-04-09T19:40:37.490Z,28.20
2023-04-09T19:43:05.697Z,28.04
2023-04-09T19:45:33.911Z,27.78
2023-04-09T19:48:03.454Z,28.46
2023-04-09T19:50:31.720Z,28.43
2023-04-09T19:52:59.755Z,28.14
2023-04-09T19:55:28.486Z,28.66
2023-04-09T19:57:56.608Z,28.53
2023-04-09T20:00:24.656Z,28.40
2023-04-09T20:02:53.594Z,28.39
2023-04-09T20:05:23.500Z,28.51
2023-04-09T20:07:52.737Z,28.13
2023-04-09T20:10:21.264Z,28.47
2023-04-09T20:12:50.623Z,28.65
2023-04-09T20:15:20.844Z,28.83
2023-04-09T20:17:49.342Z,28.96
2023-04-09T20:20:19.992Z,29.32
2023-04-09T20:22:56.443Z,28.32
2023-04-09T20:25:25.701Z,29.17
2023-04-09T20:27:57.308Z,29.17
2023-04-09T20:30:25.982Z,29.57
2023-04-09T20:32:54.556Z,28.54
2023-04-09T20:35:24.202Z,28.66
2023-04-09T20:37:57.295Z,29.35
2023-04-09T20:40:26.522Z,29.42
2023-04-09T20:42:55.785Z,29.28
2023-04-09T20:45:24.315Z,29.34
2023-04-09T20:47:53.673Z,29.64
2023-04-09T20:50:22.292Z,29.48
2023-04-09T20:52:50.781Z,29.11
2023-04-09T20:55:21.077Z,30.06
2023-04-09T20:57:49.619Z,29.69
2023-04-09T21:00:20.916Z,29.28
2023-04-09T21:02:49.427Z,30.28
2023-04-09T21:05:23.257Z,29.77
2023-04-09T21:07:52.686Z,30.18
2023-04-09T21:10:22.329Z,30.41
2023-04-09T21:12:50.385Z,30.50
2023-04-09T21:15:18.612Z,30.30
2023-04-09T21:17:46.793Z,29.97
2023-04-09T21:20:16.755Z,30.61
2023-04-09T21:22:44.897Z,30.71
2023-04-09T21:25:15.254Z,30.10
2023-04-09T21:27:45.947Z,30.19
2023-04-09T21:30:17.246Z,31.14
2023-04-09T21:32:45.621Z,30.88
2023-04-09T21:35:14.025Z,30.81
2023-04-09T21:37:42.267Z,30.68
2023-04-09T21:40:11.531Z,30.79
2023-04-09T21:42:40.942Z,30.91
2023-04-09T21:45:11.886Z,30.85
2023-04-09T21:47:40.779Z,30.62
2023-04-09T21:50:10.763Z,31.05
2023-04-09T21:52:39.445Z,31.46
2023-04-09T21:55:09.829Z,31.00
2023-04-09T21:57:38.564Z,31.82
2023-04-09T22:00:11.924Z,31.54
2023-04-09T22:02:40.950Z,31.99
2023-04-09T22:05:10.428Z,31.65
2023-04-09T22:07:40.964Z,31.64
2023-04-09T22:10:11.057Z,31.73
2023-04-09T22:12:40.810Z,32.33
2023-04-09T22:15:13.512Z,32.19
2023-04-09T22:17:42.416Z,32.37
2023-04-09T22:20:11.250Z,33.12
2023-04-09T22:22:40.219Z,32.99
2023-04-09T22:25:11.286Z,32.74
2023-04-09T22:27:40.921Z,32.76
2023-04-09T22:30:11.658Z,32.50
2023-04-09T22:32:40.549Z,32.78
2023-04-09T22:35:10.305Z,33.02
2023-04-09T22:37:40.313Z,32.83
2023-04-09T22:40:14.399Z,33.51
2023-04-09T22:42:43.664Z,33.49
2023-04-09T22:45:14.171Z,33.43
2023-04-09T22:47:42.886Z,33.46
2023-04-09T22:50:13.748Z,33.79
2023-04-09T22:52:42.358Z,33.72
2023-04-09T22:55:11.848Z,34.01
2023-04-09T22:57:43.127Z,33.95
2023-04-09T23:00:14.507Z,34.03
2023-04-09T23:02:43.451Z,34.14
2023-04-09T23:05:12.084Z,34.11
2023-04-09T23:07:42.883Z,34.07
2023-04-09T23:10:14.384Z,34.23
2023-04-09T23:12:43.524Z,34.74
2023-04-09T23:15:13.634Z,34.72
2023-04-09T23:17:43.156Z,34.27
2023-04-09T23:20:15.114Z,34.72
2023-04-09T23:22:43.884Z,34.27
2023-04-09T23:25:13.588Z,34.89
2023-04-09T23:27:42.282Z,34.87
2023-04-09T23:30:11.905Z,35.13
2023-04-09T23:32:42.354Z,35.20
2023-04-09T23:35:11.717Z,35.16
2023-04-09T23:37:40.568Z,34.98
2023-04-09T23:40:10.482Z,34.91
2023-04-09T23:42:40.127Z,35.35
2023-04-09T23:45:09.762Z,35.09
2023-04-09T23:47:39.662Z,35.14
2023-04-09T23:50:10.665Z,35.48
2023-04-09T23:52:39.860Z,35.84
2023-04-09T23:55:09.871Z,36.00
2023-04-09T23:57:38.916Z,35.66
